createdAt,value
2018-12-22T00:02:21.886Z,27.87
2018-12-22T00:04:50.559Z,34.40
2018-12-22T00:07:19.369Z,28.77
2018-12-22T00:09:49.204Z,33.13
2018-12-22T00:12:18.028Z,35.67
2018-12-22T00:14:46.516Z,46.30
2018-12-22T00:17:15.150Z,39.60
2018-12-22T00:19:45.013Z,42.07
2018-12-22T00:22:13.577Z,34.90
2018-12-22T00:24:42.265Z,29.83
2018-12-22T00:27:11.041Z,28.23
2018-12-22T00:29:39.704Z,30.90
2018-12-22T00:32:08.260Z,32.97
2018-12-22T00:34:37.288Z,29.33
2018-12-22T00:37:05.910Z,32.73
2018-12-22T00:39:34.918Z,33.53
2018-12-22T00:42:03.549Z,30.77
2018-12-22T00:44:32.150Z,27.70
2018-12-22T00:47:01.441Z,32.10
2018-12-22T00:49:30.313Z,27.87
2018-12-22T00:51:58.929Z,27.13
2018-12-22T00:54:27.528Z,33.00
2018-12-22T00:56:56.199Z,27.67
2018-12-22T00:59:24.953Z,24.83
2018-12-22T01:01:53.575Z,32.00
2018-12-22T01:04:22.129Z,21.67
2018-12-22T01:06:52.721Z,33.30
2018-12-22T01:09:22.331Z,20.57
2018-12-22T01:11:50.934Z,29.20
2018-12-22T01:14:19.459Z,31.07
2018-12-22T01:16:48.141Z,22.67
2018-12-22T01:19:16.749Z,23.43
2018-12-22T01:21:45.368Z,25.63
2018-12-22T01:24:14.313Z,19.70
2018-12-22T01:26:43.180Z,17.13
2018-12-22T01:29:11.712Z,18.43
2018-12-22T01:31:40.360Z,18.20
2018-12-22T01:34:09.048Z,18.83
2018-12-22T01:36:37.657Z,14.17
2018-12-22T01:39:07.018Z,15.73
2018-12-22T01:41:35.804Z,13.50
2018-12-22T01:44:04.474Z,17.33
2018-12-22T01:46:33.141Z,9.97
2018-12-22T01:49:01.880Z,18.63
2018-12-22T01:51:30.567Z,15.70
2018-12-22T01:53:59.231Z,20.50
2018-12-22T01:56:27.948Z,17.33
2018-12-22T01:58:56.826Z,17.33
2018-12-22T02:01:25.611Z,12.83
2018-12-22T02:03:55.046Z,16.73
2018-12-22T02:06:24.606Z,16.53
2018-12-22T02:08:53.999Z,16.70
2018-12-22T02:11:22.549Z,19.23
2018-12-22T02:13:51.525Z,20.27
2018-12-22T02:16:20.168Z,22.73
2018-12-22T02:18:49.036Z,20.33
2018-12-22T02:21:18.030Z,21.67
2018-12-22T02:23:47.459Z,20.17
2018-12-22T02:26:16.056Z,17.93
2018-12-22T02:28:45.047Z,17.50
2018-12-22T02:31:13.588Z,16.77
2018-12-22T02:33:42.195Z,19.73
2018-12-22T02:36:11.472Z,21.80
2018-12-22T02:38:40.409Z,22.63
2018-12-22T02:41:09.064Z,18.63
2018-12-22T02:43:38.109Z,16.80
2018-12-22T02:46:06.757Z,20.30
2018-12-22T02:48:35.932Z,22.50
2018-12-22T02:51:04.581Z,17.80
2018-12-22T02:53:33.880Z,18.70
2018-12-22T02:56:02.413Z,19.03
2018-12-22T02:58:31.045Z,24.87
2018-12-22T03:00:59.827Z,22.73
2018-12-22T03:03:28.451Z,19.23
2018-12-22T03:05:57.074Z,16.03
2018-12-22T03:08:25.741Z,23.33
2018-12-22T03:10:54.304Z,18.33
2018-12-22T03:13:22.875Z,24.87
2018-12-22T03:15:51.655Z,21.97
2018-12-22T03:18:20.180Z,22.90
2018-12-22T03:20:48.820Z,18.90
2018-12-22T03:23:19.352Z,23.30
2018-12-22T03:25:48.058Z,20.57
2018-12-22T03:28:17.564Z,22.77
2018-12-22T03:30:46.206Z,17.00
2018-12-22T03:33:14.803Z,19.47
2018-12-22T03:35:43.518Z,21.37
2018-12-22T03:38:12.206Z,19.37
2018-12-22T03:40:40.845Z,21.47
2018-12-22T03:43:09.532Z,20.97
2018-12-22T03:45:38.434Z,18.87
2018-12-22T03:48:07.400Z,18.37
2018-12-22T03:50:36.109Z,20.03
2018-12-22T03:53:12.452Z,18.87
2018-12-22T03:55:41.036Z,19.73
2018-12-22T03:58:09.605Z,21.27
2018-12-22T04:00:38.553Z,20.63
2018-12-22T04:03:07.139Z,16.93
2018-12-22T04:05:35.756Z,15.90
2018-12-22T04:08:04.691Z,18.63
2018-12-22T04:10:33.280Z,19.37
2018-12-22T04:13:01.918Z,17.93
2018-12-22T04:15:30.723Z,23.87
2018-12-22T04:17:59.720Z,19.70
2018-12-22T04:20:28.513Z,17.10
2018-12-22T04:22:57.113Z,20.03
2018-12-22T04:25:25.722Z,17.00
2018-12-22T04:27:54.288Z,23.23
2018-12-22T04:30:23.337Z,16.97
2018-12-22T04:32:52.031Z,18.00
2018-12-22T04:35:21.306Z,17.10
2018-12-22T04:37:49.918Z,13.93
2018-12-22T04:40:19.407Z,19.80
2018-12-22T04:42:47.974Z,24.97
2018-12-22T04:45:16.855Z,14.67
2018-12-22T04:47:45.380Z,16.50
2018-12-22T04:50:13.914Z,21.47
2018-12-22T04:52:42.616Z,17.47
2018-12-22T04:55:11.219Z,18.07
2018-12-22T04:57:40.738Z,18.40
2018-12-22T05:00:10.695Z,19.67
2018-12-22T05:02:39.235Z,24.37
2018-12-22T05:05:07.873Z,22.77
2018-12-22T05:07:38.580Z,16.77
2018-12-22T05:10:08.617Z,19.70
2018-12-22T05:12:37.807Z,18.17
2018-12-22T05:15:07.569Z,18.20
2018-12-22T05:17:36.156Z,21.27
2018-12-22T05:20:05.621Z,17.67
2018-12-22T05:22:34.141Z,19.40
2018-12-22T05:25:02.720Z,22.83
2018-12-22T05:27:31.308Z,21.77
2018-12-22T05:30:00.451Z,26.03
2018-12-22T05:32:29.691Z,19.90
2018-12-22T05:34:58.274Z,21.60
2018-12-22T05:37:26.838Z,20.17
2018-12-22T05:39:55.431Z,20.17
2018-12-22T05:42:24.138Z,18.60
2018-12-22T05:44:52.663Z,24.17
2018-12-22T05:47:21.239Z,19.87
2018-12-22T05:49:49.903Z,22.80
2018-12-22T05:52:18.448Z,18.27
2018-12-22T05:54:46.989Z,15.77
2018-12-22T05:57:16.449Z,18.47
2018-12-22T05:59:45.360Z,17.00
2018-12-22T06:02:22.522Z,19.93
2018-12-22T06:04:51.115Z,24.67
2018-12-22T06:07:19.667Z,19.77
2018-12-22T06:09:48.273Z,22.43
2018-12-22T06:12:16.795Z,17.33
2018-12-22T06:14:45.512Z,19.90
2018-12-22T06:17:14.935Z,19.30
2018-12-22T06:19:43.513Z,17.73
2018-12-22T06:22:12.492Z,12.63
2018-12-22T06:24:41.125Z,23.97
2018-12-22T06:27:09.695Z,14.53
2018-12-22T06:29:38.245Z,21.93
2018-12-22T06:32:07.252Z,15.10
2018-12-22T06:34:35.855Z,23.50
2018-12-22T06:37:04.434Z,15.90
2018-12-22T06:39:33.142Z,17.63
2018-12-22T06:42:03.779Z,26.07
2018-12-22T06:44:32.735Z,18.17
2018-12-22T06:47:01.709Z,21.73
2018-12-22T06:49:30.340Z,18.17
2018-12-22T06:51:59.090Z,17.73
2018-12-22T06:54:27.631Z,19.20
2018-12-22T06:56:56.269Z,21.10
2018-12-22T06:59:30.046Z,17.10
2018-12-22T07:01:58.816Z,23.90
2018-12-22T07:04:28.251Z,16.40
2018-12-22T07:06:57.123Z,19.90
2018-12-22T07:09:25.682Z,19.97
2018-12-22T07:11:54.219Z,20.07
2018-12-22T07:14:23.010Z,16.37
2018-12-22T07:16:51.602Z,17.17
2018-12-22T07:19:20.317Z,15.53
2018-12-22T07:21:49.104Z,19.37
2018-12-22T07:24:17.795Z,19.27
2018-12-22T07:26:46.464Z,14.43
2018-12-22T07:29:15.608Z,22.47
2018-12-22T07:31:44.246Z,19.77
2018-12-22T07:34:13.246Z,15.90
2018-12-22T07:36:41.948Z,18.13
2018-12-22T07:39:10.503Z,18.60
2018-12-22T07:41:40.385Z,19.53
2018-12-22T07:44:09.036Z,19.27
2018-12-22T07:46:37.704Z,25.13
2018-12-22T07:49:06.285Z,22.73
2018-12-22T07:51:34.830Z,22.60
2018-12-22T07:54:04.394Z,15.83
2018-12-22T07:56:33.000Z,19.83
2018-12-22T07:59:02.642Z,19.13
2018-12-22T08:01:31.213Z,21.60
2018-12-22T08:03:59.778Z,22.43
2018-12-22T08:06:28.418Z,18.37
2018-12-22T08:08:57.049Z,16.53
2018-12-22T08:11:25.689Z,19.67
2018-12-22T08:13:54.666Z,16.83
2018-12-22T08:16:23.358Z,20.33
2018-12-22T08:18:51.952Z,19.23
2018-12-22T08:21:21.461Z,19.33
2018-12-22T08:23:50.885Z,15.33
2018-12-22T08:26:19.683Z,18.97
2018-12-22T08:28:48.246Z,22.37
2018-12-22T08:31:16.861Z,21.83
2018-12-22T08:33:45.386Z,20.43
2018-12-22T08:36:13.861Z,24.20
2018-12-22T08:38:42.570Z,23.37
2018-12-22T08:41:11.077Z,23.57
2018-12-22T08:43:40.724Z,18.23
2018-12-22T08:46:09.275Z,25.87
2018-12-22T08:48:37.797Z,15.90
2018-12-22T08:51:06.524Z,23.57
2018-12-22T08:53:35.064Z,20.83
2018-12-22T08:56:04.224Z,20.17
2018-12-22T08:58:33.227Z,24.60
2018-12-22T09:01:01.816Z,18.07
2018-12-22T09:03:30.373Z,20.63
2018-12-22T09:05:59.099Z,20.00
2018-12-22T09:08:27.785Z,16.87
2018-12-22T09:10:56.432Z,17.00
2018-12-22T09:13:24.944Z,25.53
2018-12-22T09:15:53.491Z,23.00
2018-12-22T09:18:22.089Z,24.97
2018-12-22T09:20:50.672Z,22.23
2018-12-22T09:23:19.382Z,19.63
2018-12-22T09:25:47.940Z,22.93
2018-12-22T09:28:16.523Z,20.67
2018-12-22T09:30:45.108Z,23.13
2018-12-22T09:33:14.185Z,25.40
2018-12-22T09:35:43.182Z,25.80
2018-12-22T09:38:11.664Z,22.10
2018-12-22T09:40:41.417Z,28.70
2018-12-22T09:43:10.178Z,25.00
2018-12-22T09:45:38.975Z,21.93
2018-12-22T09:48:07.646Z,26.00
2018-12-22T09:50:36.354Z,23.93
2018-12-22T09:53:07.608Z,23.20
2018-12-22T09:55:36.152Z,18.17
2018-12-22T09:58:11.681Z,27.73
2018-12-22T10:00:40.965Z,26.47
2018-12-22T10:03:09.844Z,17.27
2018-12-22T10:05:44.191Z,21.63
2018-12-22T10:08:13.930Z,21.23
2018-12-22T10:10:42.506Z,26.37
2018-12-22T10:13:11.266Z,20.63
2018-12-22T10:15:39.988Z,15.83
2018-12-22T10:18:10.136Z,22.60
2018-12-22T10:20:39.618Z,19.63
2018-12-22T10:23:08.396Z,20.67
2018-12-22T10:25:37.043Z,23.07
2018-12-22T10:28:06.393Z,27.13
2018-12-22T10:30:35.074Z,24.10
2018-12-22T10:33:05.172Z,25.40
2018-12-22T10:35:34.092Z,20.07
2018-12-22T10:38:02.796Z,20.63
2018-12-22T10:40:31.800Z,21.80
2018-12-22T10:43:00.332Z,24.93
2018-12-22T10:45:29.029Z,25.77
2018-12-22T10:47:57.976Z,20.87
2018-12-22T10:50:26.571Z,26.40
2018-12-22T10:52:55.139Z,25.07
2018-12-22T10:55:24.312Z,25.03
2018-12-22T10:57:52.925Z,18.90
2018-12-22T11:00:21.469Z,23.13
2018-12-22T11:02:49.996Z,25.23
2018-12-22T11:05:18.618Z,25.47
2018-12-22T11:07:47.915Z,28.67
2018-12-22T11:10:25.770Z,24.73
2018-12-22T11:12:58.381Z,16.70
2018-12-22T11:15:31.293Z,18.33
2018-12-22T11:18:00.512Z,24.37
2018-12-22T11:20:29.248Z,20.63
2018-12-22T11:22:59.842Z,21.07
2018-12-22T11:25:28.974Z,21.77
2018-12-22T11:27:57.450Z,23.83
2018-12-22T11:30:31.942Z,20.87
2018-12-22T11:33:03.345Z,18.73
2018-12-22T11:35:33.452Z,18.07
2018-12-22T11:38:02.032Z,17.97
2018-12-22T11:40:31.961Z,21.53
2018-12-22T11:43:00.715Z,18.67
2018-12-22T11:45:30.059Z,15.00
2018-12-22T11:49:10.849Z,21.00
2018-12-22T11:51:40.999Z,19.77
2018-12-22T11:54:10.035Z,19.70
2018-12-22T11:56:39.421Z,15.53
2018-12-22T11:59:08.109Z,14.07
2018-12-22T12:01:43.564Z,15.17
2018-12-22T12:04:07.993Z,22.30
2018-12-22T12:06:36.689Z,22.07
2018-12-22T12:09:06.508Z,18.17
2018-12-22T12:11:35.525Z,20.30
2018-12-22T12:14:04.048Z,14.67
2018-12-22T12:16:42.652Z,18.07
2018-12-22T12:19:18.023Z,16.33
2018-12-22T12:21:47.029Z,18.37
2018-12-22T12:24:17.078Z,13.03
2018-12-22T12:26:45.787Z,13.23
2018-12-22T12:29:14.510Z,20.60
2018-12-22T12:31:43.059Z,15.77
2018-12-22T12:34:11.680Z,15.07
2018-12-22T12:36:40.394Z,14.37
2018-12-22T12:39:13.111Z,12.93
2018-12-22T12:41:41.757Z,14.33
2018-12-22T12:44:10.440Z,16.43
2018-12-22T12:46:53.261Z,12.03
2018-12-22T12:49:22.809Z,13.93
2018-12-22T12:51:51.289Z,12.07
2018-12-22T12:54:21.392Z,15.57
2018-12-22T12:56:54.084Z,18.53
2018-12-22T12:59:23.353Z,17.17
2018-12-22T13:02:00.733Z,9.97
2018-12-22T13:04:24.058Z,19.60
2018-12-22T13:06:52.656Z,15.73
2018-12-22T13:09:21.178Z,18.27
2018-12-22T13:11:51.376Z,16.03
2018-12-22T13:14:22.429Z,21.50
2018-12-22T13:16:51.058Z,14.40
2018-12-22T13:19:19.605Z,14.40
2018-12-22T13:21:54.750Z,11.57
2018-12-22T13:24:23.834Z,16.73
2018-12-22T13:26:53.276Z,11.70
2018-12-22T13:29:21.863Z,16.40
2018-12-22T13:31:51.435Z,13.00
2018-12-22T13:34:20.028Z,15.47
2018-12-22T13:36:48.992Z,20.30
2018-12-22T13:39:24.810Z,15.13
2018-12-22T13:41:54.901Z,9.80
2018-12-22T13:44:23.413Z,16.90
2018-12-22T13:46:51.946Z,16.07
2018-12-22T13:49:21.068Z,16.97
2018-12-22T13:51:49.727Z,8.80
2018-12-22T13:54:25.585Z,17.20
2018-12-22T13:56:55.144Z,15.77
2018-12-22T13:59:24.088Z,9.63
2018-12-22T14:01:56.952Z,15.47
2018-12-22T14:04:25.662Z,14.43
2018-12-22T14:06:54.430Z,14.23
2018-12-22T14:09:23.326Z,11.50
2018-12-22T14:11:51.996Z,14.50
2018-12-22T14:14:24.652Z,16.27
2018-12-22T14:16:59.582Z,11.43
2018-12-22T14:19:28.304Z,12.90
2018-12-22T14:21:56.986Z,19.27
2018-12-22T14:24:31.635Z,15.30
2018-12-22T14:27:00.334Z,14.67
2018-12-22T14:29:29.504Z,19.57
2018-12-22T14:31:58.178Z,17.73
2018-12-22T14:34:33.817Z,14.40
2018-12-22T14:37:10.375Z,19.03
2018-12-22T14:39:39.022Z,12.60
2018-12-22T14:42:07.999Z,13.07
2018-12-22T14:44:37.157Z,14.87
2018-12-22T14:47:05.733Z,16.03
2018-12-22T14:49:34.764Z,16.10
2018-12-22T14:52:03.466Z,14.33
2018-12-22T14:54:32.449Z,15.47
2018-12-22T14:57:01.161Z,13.07
2018-12-22T14:59:30.246Z,14.00
2018-12-22T15:02:00.707Z,14.97
2018-12-22T15:04:29.479Z,15.20
2018-12-22T15:06:58.133Z,14.60
2018-12-22T15:09:26.844Z,15.57
2018-12-22T15:11:55.528Z,13.23
2018-12-22T15:14:24.303Z,13.90
2018-12-22T15:16:52.978Z,14.90
2018-12-22T15:19:21.990Z,14.53
2018-12-22T15:21:55.512Z,16.43
2018-12-22T15:24:24.624Z,17.60
2018-12-22T15:26:53.191Z,13.20
2018-12-22T15:29:21.888Z,10.10
2018-12-22T15:31:50.708Z,14.07
2018-12-22T15:34:19.556Z,13.43
2018-12-22T15:36:48.915Z,11.83
2018-12-22T15:39:19.139Z,14.73
2018-12-22T15:41:48.057Z,13.13
2018-12-22T15:44:17.152Z,13.93
2018-12-22T15:46:46.036Z,16.27
2018-12-22T15:49:16.852Z,16.20
2018-12-22T15:51:48.265Z,20.87
2018-12-22T15:54:17.642Z,18.23
2018-12-22T15:56:46.333Z,25.37
2018-12-22T15:59:15.676Z,18.70
2018-12-22T16:01:44.794Z,18.53
2018-12-22T16:04:13.899Z,23.33
2018-12-22T16:06:42.728Z,15.77
2018-12-22T16:09:20.831Z,12.47
2018-12-22T16:11:49.503Z,17.33
2018-12-22T16:14:18.724Z,16.83
2018-12-22T16:16:48.066Z,17.97
2018-12-22T16:19:17.084Z,18.80
2018-12-22T16:21:46.457Z,21.83
2018-12-22T16:24:15.558Z,15.07
2018-12-22T16:26:44.998Z,17.30
2018-12-22T16:29:27.964Z,22.43
2018-12-22T16:31:57.011Z,21.00
2018-12-22T16:34:25.799Z,18.10
2018-12-22T16:36:54.457Z,20.07
2018-12-22T16:39:23.069Z,19.57
2018-12-22T16:41:52.181Z,17.07
2018-12-22T16:44:22.434Z,17.50
2018-12-22T16:46:52.013Z,17.53
2018-12-22T16:49:20.836Z,18.70
2018-12-22T16:51:50.532Z,20.47
2018-12-22T16:54:20.029Z,25.17
2018-12-22T16:56:50.150Z,18.90
2018-12-22T16:59:20.132Z,13.63
2018-12-22T17:02:01.430Z,20.37
2018-12-22T17:04:30.489Z,17.03
2018-12-22T17:06:59.584Z,20.10
2018-12-22T17:09:29.395Z,16.50
2018-12-22T17:11:58.532Z,20.87
2018-12-22T17:14:28.323Z,20.33
2018-12-22T17:16:57.556Z,16.60
2018-12-22T17:19:27.209Z,21.90
2018-12-22T17:22:19.134Z,24.50
2018-12-22T17:24:57.198Z,22.73
2018-12-22T17:27:25.850Z,22.47
2018-12-22T17:29:55.103Z,23.40
2018-12-22T17:32:25.345Z,23.17
2018-12-22T17:34:55.909Z,23.67
2018-12-22T17:37:24.488Z,20.93
2018-12-22T17:39:55.917Z,18.97
2018-12-22T17:42:24.683Z,16.87
2018-12-22T17:44:54.166Z,21.60
2018-12-22T17:47:27.151Z,16.63
2018-12-22T17:49:55.828Z,24.83
2018-12-22T17:52:25.003Z,18.50
2018-12-22T17:54:53.687Z,20.77
2018-12-22T17:57:22.558Z,18.50
2018-12-22T17:59:51.247Z,15.83
2018-12-22T18:02:20.028Z,19.83
2018-12-22T18:04:48.989Z,21.60
2018-12-22T18:07:17.976Z,21.30
2018-12-22T18:09:46.729Z,16.33
2018-12-22T18:12:15.452Z,14.13
2018-12-22T18:14:44.330Z,19.40
2018-12-22T18:17:14.014Z,22.90
2018-12-22T18:19:42.887Z,25.03
2018-12-22T18:22:11.549Z,21.07
2018-12-22T18:24:40.326Z,16.37
2018-12-22T18:27:09.189Z,23.03
2018-12-22T18:29:37.926Z,17.00
2018-12-22T18:32:07.502Z,18.20
2018-12-22T18:34:36.308Z,23.70
2018-12-22T18:37:06.266Z,26.37
2018-12-22T18:39:34.900Z,17.57
2018-12-22T18:42:03.874Z,22.10
2018-12-22T18:44:32.566Z,19.87
2018-12-22T18:47:01.193Z,27.30
2018-12-22T18:49:30.805Z,21.17
2018-12-22T18:51:59.771Z,21.93
2018-12-22T18:54:28.376Z,27.50
2018-12-22T18:56:56.911Z,23.93
2018-12-22T18:59:26.350Z,22.43
2018-12-22T19:01:54.887Z,20.90
2018-12-22T19:04:24.109Z,25.20
2018-12-22T19:06:52.876Z,17.70
2018-12-22T19:09:25.760Z,19.97
2018-12-22T19:11:54.435Z,22.83
2018-12-22T19:14:23.020Z,20.13
2018-12-22T19:16:52.526Z,16.77
2018-12-22T19:19:21.570Z,26.53
2018-12-22T19:21:50.224Z,17.77
2018-12-22T19:24:18.888Z,23.20
2018-12-22T19:26:47.584Z,29.10
2018-12-22T19:29:16.114Z,24.83
2018-12-22T19:31:45.001Z,27.73
2018-12-22T19:34:13.535Z,23.80
2018-12-22T19:36:42.015Z,22.07
2018-12-22T19:39:10.659Z,19.80
2018-12-22T19:41:39.189Z,27.27
2018-12-22T19:44:07.775Z,25.37
2018-12-22T19:46:36.653Z,29.17
2018-12-22T19:49:05.831Z,22.70
2018-12-22T19:51:34.453Z,24.83
2018-12-22T19:54:03.150Z,22.03
2018-12-22T19:56:31.806Z,23.30
2018-12-22T19:59:01.362Z,19.00
2018-12-22T20:01:32.828Z,20.57
2018-12-22T20:04:02.246Z,19.67
2018-12-22T20:06:31.131Z,21.13
2018-12-22T20:09:00.232Z,20.80
2018-12-22T20:11:29.209Z,24.07
2018-12-22T20:13:59.379Z,21.97
2018-12-22T20:16:28.092Z,20.93
2018-12-22T20:18:56.626Z,25.77
2018-12-22T20:21:25.477Z,24.87
2018-12-22T20:23:55.059Z,21.40
2018-12-22T20:26:23.992Z,21.93
2018-12-22T20:28:53.370Z,20.47
2018-12-22T20:31:22.240Z,25.00
2018-12-22T20:33:51.644Z,20.47
2018-12-22T20:36:21.387Z,25.90
2018-12-22T20:38:50.052Z,22.47
2018-12-22T20:41:18.772Z,24.97
2018-12-22T20:43:47.352Z,25.30
2018-12-22T20:46:16.414Z,23.37
2018-12-22T20:51:18.554Z,21.77
2018-12-22T20:53:47.253Z,19.93
2018-12-22T20:56:15.828Z,24.27
2018-12-22T20:58:45.379Z,21.93
2018-12-22T21:01:14.088Z,21.77
2018-12-22T21:03:42.760Z,21.47
2018-12-22T21:06:16.064Z,21.03
2018-12-22T21:08:45.090Z,28.40
2018-12-22T21:11:13.714Z,22.60
2018-12-22T21:13:42.454Z,29.20
2018-12-22T21:16:11.594Z,23.97
2018-12-22T21:18:40.968Z,28.13
2018-12-22T21:21:10.480Z,26.57
2018-12-22T21:23:39.058Z,22.60
2018-12-22T21:26:07.830Z,29.27
2018-12-22T21:28:38.129Z,24.20
2018-12-22T21:31:07.513Z,25.77
2018-12-22T21:33:36.068Z,22.07
2018-12-22T21:36:04.974Z,23.63
2018-12-22T21:38:35.503Z,25.77
2018-12-22T21:41:04.370Z,24.07
2018-12-22T21:43:33.638Z,18.40
2018-12-22T21:46:02.118Z,23.17
2018-12-22T21:48:30.673Z,27.47
2018-12-22T21:50:59.254Z,20.87
2018-12-22T21:53:30.015Z,29.23
2018-12-22T21:55:59.583Z,27.57
2018-12-22T21:58:28.206Z,23.07
2018-12-22T22:00:57.195Z,20.97
2018-12-22T22:03:26.648Z,25.10
2018-12-22T22:05:55.191Z,18.83
2018-12-22T22:08:24.486Z,24.73
2018-12-22T22:10:53.904Z,22.13
2018-12-22T22:13:22.965Z,25.60
2018-12-22T22:15:52.765Z,22.33
2018-12-22T22:18:21.897Z,25.60
2018-12-22T22:20:50.993Z,25.57
2018-12-22T22:23:20.075Z,22.83
2018-12-22T22:25:49.884Z,24.30
2018-12-22T22:28:18.467Z,20.50
2018-12-22T22:30:47.389Z,24.53
2018-12-22T22:33:15.897Z,24.47
2018-12-22T22:35:45.153Z,22.27
2018-12-22T22:38:14.125Z,18.00
2018-12-22T22:40:42.682Z,24.73
2018-12-22T22:43:11.173Z,20.67
2018-12-22T22:45:40.502Z,21.53
2018-12-22T22:48:09.517Z,23.00
2018-12-22T22:50:38.867Z,24.27
2018-12-22T22:53:07.335Z,22.83
2018-12-22T22:55:36.549Z,21.23
2018-12-22T22:58:05.125Z,23.03
2018-12-22T23:00:38.549Z,29.37
2018-12-22T23:03:10.217Z,22.03
2018-12-22T23:05:39.205Z,24.20
2018-12-22T23:08:08.481Z,24.43
2018-12-22T23:10:37.489Z,19.00
2018-12-22T23:13:06.071Z,20.63
2018-12-22T23:15:35.076Z,17.90
2018-12-22T23:18:04.032Z,17.20
2018-12-22T23:20:32.784Z,30.57
2018-12-22T23:23:01.359Z,27.27
2018-12-22T23:25:29.952Z,19.03
2018-12-22T23:27:58.483Z,22.03
2018-12-22T23:30:27.593Z,24.23
2018-12-22T23:32:56.882Z,22.03
2018-12-22T23:35:25.489Z,16.17
2018-12-22T23:37:54.022Z,22.33
2018-12-22T23:40:22.670Z,23.07
2018-12-22T23:42:51.299Z,25.83
2018-12-22T23:45:19.867Z,29.43
2018-12-22T23:47:48.733Z,20.83
2018-12-22T23:50:17.410Z,23.20
2018-12-22T23:52:46.385Z,21.23
2018-12-22T23:55:14.977Z,19.07
2018-12-22T23:57:43.951Z,22.40
